createdAt,value
2022-11-21T00:01:25.998Z,98.10
2022-11-21T00:03:53.895Z,98.20
2022-11-21T00:06:23.895Z,98.20
2022-11-21T00:08:52.666Z,98.10
2022-11-21T00:11:20.869Z,97.90
2022-11-21T00:14:00.776Z,97.90
2022-11-21T00:16:33.212Z,97.80
2022-11-21T00:19:01.961Z,97.50
2022-11-21T00:21:30.204Z,97.50
2022-11-21T00:24:00.517Z,97.60
2022-11-21T00:26:28.606Z,97.40
2022-11-21T00:29:00.187Z,97.40
2022-11-21T00:31:28.067Z,97.20
2022-11-21T00:33:56.240Z,97.20
2022-11-21T00:36:27.893Z,97.20
2022-11-21T00:38:56.510Z,97.00
2022-11-21T00:41:24.940Z,97.00
2022-11-21T00:43:56.023Z,97.20
2022-11-21T00:46:30.642Z,97.20
2022-11-21T00:48:58.914Z,97.30
2022-11-21T00:51:27.152Z,96.70
2022-11-21T00:53:55.493Z,97.10
2022-11-21T00:56:23.684Z,97.20
2022-11-21T00:58:53.492Z,97.30
2022-11-21T01:01:21.328Z,97.20
2022-11-21T01:03:57.617Z,97.20
2022-11-21T01:06:29.601Z,97.10
2022-11-21T01:08:58.512Z,97.10
2022-11-21T01:11:26.817Z,97.10
2022-11-21T01:14:00.357Z,97.20
2022-11-21T01:16:32.605Z,97.30
2022-11-21T01:19:00.612Z,97.40
2022-11-21T01:21:31.923Z,97.20
2022-11-21T01:24:00.950Z,97.30
2022-11-21T01:26:30.783Z,97.20
2022-11-21T01:29:01.894Z,97.40
2022-11-21T01:31:30.356Z,97.40
2022-11-21T01:33:59.462Z,97.40
2022-11-21T01:36:29.912Z,97.50
2022-11-21T01:39:00.906Z,97.40
2022-11-21T01:41:34.180Z,97.50
2022-11-21T01:44:03.542Z,97.50
2022-11-21T01:46:34.194Z,97.40
2022-11-21T01:49:06.802Z,97.30
2022-11-21T01:51:54.026Z,97.00
2022-11-21T01:54:31.708Z,97.30
2022-11-21T01:56:59.252Z,97.30
2022-11-21T01:59:52.902Z,97.10
2022-11-21T02:02:25.141Z,97.40
2022-11-21T02:04:53.385Z,97.30
2022-11-21T02:07:23.445Z,97.40
2022-11-21T02:09:59.156Z,97.60
2022-11-21T02:12:40.937Z,97.50
2022-11-21T02:15:08.796Z,97.60
2022-11-21T02:17:36.249Z,97.70
2022-11-21T02:20:10.140Z,97.60
2022-11-21T02:22:57.120Z,97.90
2022-11-21T02:25:36.500Z,97.90
2022-11-21T02:28:07.046Z,97.90
2022-11-21T02:30:37.569Z,97.90
2022-11-21T02:33:05.656Z,97.90
2022-11-21T02:35:36.409Z,97.60
2022-11-21T02:38:26.030Z,97.80
2022-11-21T02:41:16.835Z,97.70
2022-11-21T02:43:50.580Z,97.70
2022-11-21T02:46:18.007Z,97.60
2022-11-21T02:48:46.349Z,97.30
2022-11-21T02:51:13.714Z,97.50
2022-11-21T02:53:41.428Z,97.20
2022-11-21T02:56:09.150Z,97.40
2022-11-21T02:58:36.825Z,97.40
2022-11-21T03:01:04.404Z,97.30
2022-11-21T03:03:31.887Z,97.30
2022-11-21T03:05:59.299Z,97.30
2022-11-21T03:08:26.653Z,97.30
2022-11-21T03:10:54.113Z,97.30
2022-11-21T03:13:21.588Z,97.30
2022-11-21T03:15:49.087Z,97.40
2022-11-21T03:18:16.581Z,97.40
2022-11-21T03:20:44.237Z,97.20
2022-11-21T03:23:11.680Z,97.40
2022-11-21T03:25:39.042Z,97.10
2022-11-21T03:28:06.393Z,97.20
2022-11-21T03:30:33.984Z,97.40
2022-11-21T03:33:01.410Z,97.40
2022-11-21T03:35:28.796Z,97.40
2022-11-21T03:37:56.305Z,97.40
2022-11-21T03:40:23.669Z,97.40
2022-11-21T03:42:51.088Z,97.10
2022-11-21T03:45:18.516Z,97.40
2022-11-21T03:47:45.928Z,97.40
2022-11-21T03:50:15.156Z,97.30
2022-11-21T03:52:42.958Z,97.30
2022-11-21T03:55:10.604Z,97.40
2022-11-21T03:57:39.381Z,97.30
2022-11-21T04:00:07.503Z,97.10
2022-11-21T04:02:35.041Z,97.30
2022-11-21T04:05:02.655Z,97.00
2022-11-21T04:07:31.361Z,97.40
2022-11-21T04:09:58.819Z,97.60
2022-11-21T04:12:26.284Z,97.30
2022-11-21T04:14:53.925Z,97.30
2022-11-21T04:17:21.362Z,97.20
2022-11-21T04:19:48.820Z,97.10
2022-11-21T04:22:16.451Z,97.40
2022-11-21T04:24:44.146Z,97.30
2022-11-21T04:27:11.833Z,97.30
2022-11-21T04:29:39.351Z,97.40
2022-11-21T04:32:06.845Z,97.10
2022-11-21T04:34:34.980Z,97.40
2022-11-21T04:37:11.253Z,96.90
2022-11-21T04:39:39.168Z,97.20
2022-11-21T04:42:07.066Z,97.40
2022-11-21T04:44:34.522Z,97.20
2022-11-21T04:47:05.598Z,96.90
2022-11-21T04:49:36.512Z,96.90
2022-11-21T04:52:07.821Z,96.90
2022-11-21T04:54:35.428Z,96.90
2022-11-21T04:57:02.969Z,96.70
2022-11-21T04:59:30.398Z,96.80
2022-11-21T05:01:57.843Z,96.90
2022-11-21T05:04:25.468Z,97.00
2022-11-21T05:06:52.893Z,96.60
2022-11-21T05:09:20.552Z,96.90
2022-11-21T05:12:06.564Z,96.60
2022-11-21T05:14:33.958Z,96.40
2022-11-21T05:17:04.757Z,96.60
2022-11-21T05:19:39.306Z,96.40
2022-11-21T05:22:13.569Z,96.50
2022-11-21T05:24:42.262Z,96.60
2022-11-21T05:27:09.918Z,96.30
2022-11-21T05:29:37.358Z,96.30
2022-11-21T05:32:05.021Z,96.40
2022-11-21T05:34:32.494Z,96.30
2022-11-21T05:37:00.390Z,96.60
2022-11-21T05:39:28.190Z,96.20
2022-11-21T05:42:01.345Z,96.20
2022-11-21T05:44:30.876Z,96.10
2022-11-21T05:46:58.473Z,96.20
2022-11-21T05:49:26.029Z,96.10
2022-11-21T05:51:53.377Z,96.00
2022-11-21T05:54:20.763Z,96.10
2022-11-21T05:56:48.247Z,96.20
2022-11-21T05:59:15.904Z,96.40
2022-11-21T06:02:02.046Z,96.50
2022-11-21T06:04:29.950Z,96.40
2022-11-21T06:06:57.638Z,96.30
2022-11-21T06:09:25.090Z,96.40
2022-11-21T06:11:52.453Z,96.70
2022-11-21T06:14:19.965Z,96.40
2022-11-21T06:16:47.867Z,96.40
2022-11-21T06:19:15.266Z,96.50
2022-11-21T06:21:42.666Z,96.40
2022-11-21T06:24:10.173Z,96.40
2022-11-21T06:26:37.865Z,96.40
2022-11-21T06:29:05.469Z,96.40
2022-11-21T06:31:33.226Z,96.30
2022-11-21T06:34:00.835Z,96.40
2022-11-21T06:36:29.383Z,96.30
2022-11-21T06:38:57.094Z,96.20
2022-11-21T06:41:26.420Z,96.20
2022-11-21T06:43:53.927Z,96.40
2022-11-21T06:46:51.177Z,96.20
2022-11-21T06:49:19.312Z,96.30
2022-11-21T06:51:46.714Z,96.30
2022-11-21T06:54:16.927Z,96.30
2022-11-21T06:56:44.962Z,96.50
2022-11-21T06:59:12.419Z,96.60
2022-11-21T07:01:39.847Z,96.80
2022-11-21T07:04:07.365Z,96.50
2022-11-21T07:06:35.111Z,96.90
2022-11-21T07:09:31.790Z,97.00
2022-11-21T07:11:50.098Z,97.00
2022-11-21T07:14:18.140Z,97.20
2022-11-21T07:16:45.788Z,97.20
2022-11-21T07:19:13.236Z,97.20
2022-11-21T07:21:40.717Z,97.20
2022-11-21T07:24:08.217Z,97.20
2022-11-21T07:26:35.512Z,97.20
2022-11-21T07:29:02.877Z,97.30
2022-11-21T07:31:30.172Z,97.70
2022-11-21T07:33:57.491Z,97.40
2022-11-21T07:36:24.832Z,97.30
2022-11-21T07:38:52.164Z,97.40
2022-11-21T07:41:19.452Z,97.60
2022-11-21T07:43:49.210Z,97.70
2022-11-21T07:46:16.581Z,97.50
2022-11-21T07:48:44.017Z,97.80
2022-11-21T07:51:12.433Z,97.50
2022-11-21T07:53:40.153Z,98.00
2022-11-21T07:56:09.658Z,97.30
2022-11-21T07:58:37.128Z,97.40
2022-11-21T08:01:07.979Z,97.50
2022-11-21T08:03:35.648Z,97.50
2022-11-21T08:06:05.066Z,97.60
2022-11-21T08:08:32.835Z,97.40
2022-11-21T08:11:05.633Z,97.30
2022-11-21T08:13:34.199Z,97.50
2022-11-21T08:16:05.465Z,97.50
2022-11-21T08:18:34.332Z,97.40
2022-11-21T08:21:03.376Z,97.30
2022-11-21T08:23:32.916Z,97.60
2022-11-21T08:26:00.457Z,97.20
2022-11-21T08:28:29.268Z,97.00
2022-11-21T08:30:56.616Z,96.80
2022-11-21T08:33:24.038Z,96.40
2022-11-21T08:35:51.415Z,96.40
2022-11-21T08:38:18.777Z,96.40
2022-11-21T08:40:46.223Z,96.30
2022-11-21T08:43:13.558Z,96.50
2022-11-21T08:45:40.955Z,96.20
2022-11-21T08:48:11.726Z,96.30
2022-11-21T08:50:39.360Z,96.40
2022-11-21T08:53:06.698Z,96.20
2022-11-21T08:55:34.027Z,95.90
2022-11-21T08:58:01.419Z,96.10
2022-11-21T09:00:29.213Z,96.40
2022-11-21T09:02:57.164Z,96.30
2022-11-21T09:05:24.681Z,96.40
2022-11-21T09:07:59.308Z,96.70
2022-11-21T09:10:27.552Z,96.90
2022-11-21T09:12:59.905Z,96.50
2022-11-21T09:15:45.942Z,96.60
2022-11-21T09:18:13.930Z,96.20
2022-11-21T09:20:43.449Z,96.30
2022-11-21T09:23:13.262Z,96.30
2022-11-21T09:25:41.742Z,96.30
2022-11-21T09:28:11.128Z,96.10
2022-11-21T09:30:39.261Z,96.10
2022-11-21T09:33:09.891Z,96.30
2022-11-21T09:35:37.622Z,96.50
2022-11-21T09:38:05.533Z,96.60
2022-11-21T09:40:34.180Z,96.50
2022-11-21T09:43:26.916Z,96.10
2022-11-21T09:46:05.951Z,96.40
2022-11-21T09:48:43.352Z,95.90
2022-11-21T09:51:13.837Z,95.70
2022-11-21T09:54:04.039Z,95.10
2022-11-21T09:56:36.668Z,94.90
2022-11-21T09:59:22.837Z,94.40
2022-11-21T10:01:51.381Z,94.40
2022-11-21T10:04:18.904Z,94.00
2022-11-21T10:06:58.016Z,93.80
2022-11-21T10:09:44.644Z,93.90
2022-11-21T10:12:37.078Z,93.40
2022-11-21T10:15:31.957Z,93.10
2022-11-21T10:18:21.225Z,93.20
2022-11-21T10:21:20.285Z,92.80
2022-11-21T10:24:26.773Z,93.20
2022-11-21T10:27:02.441Z,92.80
2022-11-21T10:29:44.882Z,92.60
2022-11-21T10:32:31.885Z,92.80
2022-11-21T10:35:17.652Z,92.80
2022-11-21T10:37:59.596Z,93.20
2022-11-21T10:40:42.059Z,92.00
2022-11-21T10:43:52.968Z,91.70
2022-11-21T10:46:20.884Z,92.00
2022-11-21T10:49:15.275Z,91.70
2022-11-21T10:51:49.992Z,91.90
2022-11-21T10:54:32.527Z,91.50
2022-11-21T10:57:07.702Z,90.70
2022-11-21T10:59:43.870Z,90.70
2022-11-21T11:02:26.658Z,90.20
2022-11-21T11:05:16.255Z,90.40
2022-11-21T11:08:03.163Z,89.60
2022-11-21T11:10:32.800Z,90.40
2022-11-21T11:13:50.896Z,88.30
2022-11-21T11:16:21.384Z,89.60
2022-11-21T11:19:04.908Z,90.00
2022-11-21T11:21:44.412Z,90.00
2022-11-21T11:24:12.378Z,89.10
2022-11-21T11:26:49.663Z,88.40
2022-11-21T11:29:26.195Z,89.40
2022-11-21T11:32:01.296Z,90.00
2022-11-21T11:34:40.637Z,89.50
2022-11-21T11:37:21.200Z,89.80
2022-11-21T11:40:13.418Z,88.60
2022-11-21T11:43:05.313Z,89.10
2022-11-21T11:46:00.287Z,89.50
2022-11-21T11:48:56.658Z,87.90
2022-11-21T11:51:43.821Z,89.20
2022-11-21T11:54:24.729Z,88.30
2022-11-21T11:56:52.765Z,88.20
2022-11-21T11:59:30.025Z,87.70
2022-11-21T12:02:24.416Z,87.90
2022-11-21T12:05:05.091Z,88.50
2022-11-21T12:08:39.396Z,88.20
2022-11-21T12:11:25.297Z,88.40
2022-11-21T12:13:56.710Z,88.50
2022-11-21T12:16:26.714Z,88.10
2022-11-21T12:19:05.635Z,87.40
2022-11-21T12:21:33.425Z,88.00
2022-11-21T12:24:04.482Z,88.00
2022-11-21T12:26:40.560Z,87.60
2022-11-21T12:29:14.156Z,87.90
2022-11-21T12:31:47.429Z,87.40
2022-11-21T12:34:50.927Z,86.80
2022-11-21T12:37:37.284Z,86.40
2022-11-21T12:40:07.793Z,86.80
2022-11-21T12:42:58.660Z,86.60
2022-11-21T12:45:37.959Z,85.50
2022-11-21T12:48:45.555Z,84.80
2022-11-21T12:51:47.808Z,84.70
2022-11-21T12:54:40.491Z,84.50
2022-11-21T12:57:14.088Z,83.70
2022-11-21T13:00:01.559Z,83.30
2022-11-21T13:02:38.628Z,83.70
2022-11-21T13:05:12.293Z,83.70
2022-11-21T13:07:40.425Z,84.10
2022-11-21T13:10:15.399Z,84.00
2022-11-21T13:18:50.341Z,82.30
2022-11-21T13:21:43.791Z,81.80
2022-11-21T13:24:12.932Z,82.20
2022-11-21T13:26:44.266Z,81.40
2022-11-21T13:29:14.066Z,82.10
2022-11-21T13:31:41.988Z,81.60
2022-11-21T13:34:28.523Z,82.40
2022-11-21T13:36:56.064Z,82.20
2022-11-21T13:39:30.939Z,82.10
2022-11-21T13:42:20.734Z,83.40
2022-11-21T13:44:49.198Z,82.60
2022-11-21T13:47:25.880Z,82.40
2022-11-21T13:50:21.149Z,83.40
2022-11-21T13:53:14.906Z,83.60
2022-11-21T13:55:58.379Z,84.00
2022-11-21T13:58:53.833Z,84.00
2022-11-21T14:01:48.540Z,84.30
2022-11-21T14:04:34.278Z,84.20
2022-11-21T14:07:33.492Z,84.00
2022-11-21T14:10:03.501Z,84.40
2022-11-21T14:12:41.241Z,84.20
2022-11-21T14:15:29.055Z,83.70
2022-11-21T14:17:58.748Z,84.00
2022-11-21T14:20:34.837Z,84.00
2022-11-21T14:23:05.323Z,84.00
2022-11-21T14:25:48.249Z,84.00
2022-11-21T14:28:26.786Z,84.20
2022-11-21T14:31:02.752Z,85.20
2022-11-21T14:33:35.461Z,84.30
2022-11-21T14:36:20.090Z,84.30
2022-11-21T14:42:02.360Z,84.00
2022-11-21T14:44:29.999Z,83.70
2022-11-21T14:47:24.683Z,83.90
2022-11-21T14:49:56.963Z,83.90
2022-11-21T14:52:31.415Z,84.70
2022-11-21T14:57:48.737Z,84.60
2022-11-21T15:03:22.539Z,84.50
2022-11-21T15:06:04.719Z,85.50
2022-11-21T15:11:26.173Z,84.60
2022-11-21T15:14:18.003Z,84.90
2022-11-21T15:16:49.227Z,85.40
2022-11-21T15:19:29.070Z,85.40
2022-11-21T15:22:01.332Z,85.60
2022-11-21T15:24:37.834Z,85.70
2022-11-21T15:27:32.080Z,86.20
2022-11-21T15:30:22.707Z,86.40
2022-11-21T15:33:12.516Z,86.50
2022-11-21T15:35:54.212Z,86.80
2022-11-21T15:38:29.967Z,86.80
2022-11-21T15:41:07.822Z,86.60
2022-11-21T15:43:45.819Z,87.00
2022-11-21T15:46:20.558Z,86.90
2022-11-21T15:48:58.522Z,86.80
2022-11-21T15:54:31.174Z,86.80
2022-11-21T15:56:59.048Z,87.00
2022-11-21T15:59:27.036Z,87.00
2022-11-21T16:01:54.778Z,87.00
2022-11-21T16:04:25.571Z,87.40
2022-11-21T16:06:54.601Z,87.20
2022-11-21T16:09:22.410Z,87.60
2022-11-21T16:11:50.484Z,87.90
2022-11-21T16:14:20.718Z,87.90
2022-11-21T16:16:48.377Z,88.00
2022-11-21T16:19:16.317Z,88.20
2022-11-21T16:21:44.445Z,88.20
2022-11-21T16:30:33.029Z,88.80
2022-11-21T16:33:02.066Z,88.80
2022-11-21T16:35:29.926Z,89.00
2022-11-21T16:37:57.508Z,88.90
2022-11-21T16:40:24.893Z,88.90
2022-11-21T16:42:52.463Z,89.00
2022-11-21T16:45:19.944Z,89.20
2022-11-21T16:47:48.909Z,88.80
2022-11-21T16:50:17.051Z,89.30
2022-11-21T16:52:44.899Z,89.40
2022-11-21T16:55:12.626Z,89.20
2022-11-21T16:57:40.325Z,89.40
2022-11-21T17:00:10.096Z,89.40
2022-11-21T17:02:38.852Z,90.10
2022-11-21T17:05:07.548Z,89.70
2022-11-21T17:07:35.066Z,89.60
2022-11-21T17:10:02.473Z,89.70
2022-11-21T17:12:31.118Z,89.40
2022-11-21T17:14:58.600Z,89.60
2022-11-21T17:17:26.711Z,90.00
2022-11-21T17:19:54.529Z,89.70
2022-11-21T17:22:24.726Z,90.00
2022-11-21T17:24:53.210Z,90.00
2022-11-21T17:27:21.823Z,90.10
2022-11-21T17:29:49.784Z,90.40
2022-11-21T17:32:17.557Z,90.30
2022-11-21T17:34:44.966Z,90.30
2022-11-21T17:37:12.323Z,90.20
2022-11-21T17:39:40.816Z,90.30
2022-11-21T17:42:08.136Z,90.20
2022-11-21T17:44:35.518Z,90.40
2022-11-21T17:47:02.973Z,90.50
2022-11-21T17:49:36.816Z,90.40
2022-11-21T17:52:05.648Z,90.50
2022-11-21T17:54:33.280Z,90.60
2022-11-21T17:57:02.149Z,90.70
2022-11-21T17:59:30.022Z,90.60
2022-11-21T18:01:58.007Z,90.60
2022-11-21T18:04:31.118Z,90.80
2022-11-21T18:06:58.663Z,90.80
2022-11-21T18:09:28.508Z,90.60
2022-11-21T18:11:57.722Z,90.70
2022-11-21T18:14:28.111Z,90.80
2022-11-21T18:16:55.826Z,90.80
2022-11-21T18:19:24.417Z,90.80
2022-11-21T18:21:52.275Z,90.80
2022-11-21T18:24:20.069Z,91.10
2022-11-21T18:26:48.262Z,91.00
2022-11-21T18:32:03.346Z,91.10
2022-11-21T18:34:30.775Z,91.20
2022-11-21T18:36:58.366Z,91.40
2022-11-21T18:39:27.064Z,91.40
2022-11-21T18:41:54.650Z,91.40
2022-11-21T18:44:22.813Z,91.30
2022-11-21T18:46:50.629Z,91.30
2022-11-21T18:49:18.328Z,91.30
2022-11-21T18:51:46.188Z,91.50
2022-11-21T18:54:13.872Z,91.50
2022-11-21T18:56:41.809Z,91.50
2022-11-21T18:59:09.271Z,91.70
2022-11-21T19:01:39.878Z,91.60
2022-11-21T19:04:07.673Z,91.90
2022-11-21T19:06:35.352Z,91.80
2022-11-21T19:09:03.260Z,91.90
2022-11-21T19:11:30.917Z,91.80
2022-11-21T19:14:00.952Z,92.00
2022-11-21T19:16:34.325Z,91.90
2022-11-21T19:21:56.228Z,92.40
2022-11-21T19:24:27.060Z,92.20
2022-11-21T19:26:56.684Z,92.30
2022-11-21T19:29:24.138Z,92.10
2022-11-21T19:31:51.570Z,92.10
2022-11-21T19:34:19.207Z,92.00
2022-11-21T19:36:47.030Z,92.10
2022-11-21T19:39:14.741Z,92.00
2022-11-21T19:41:42.185Z,92.00
2022-11-21T19:44:10.347Z,92.10
2022-11-21T19:46:39.242Z,92.10
2022-11-21T19:49:07.995Z,92.20
2022-11-21T19:51:40.898Z,92.30
2022-11-21T19:54:10.846Z,92.30
2022-11-21T19:56:38.363Z,92.30
2022-11-21T19:59:05.894Z,92.00
2022-11-21T20:01:34.881Z,92.10
2022-11-21T20:04:04.803Z,92.40
2022-11-21T20:06:39.849Z,92.10
2022-11-21T20:09:11.020Z,92.20
2022-11-21T20:11:40.443Z,92.30
2022-11-21T20:14:08.195Z,92.30
2022-11-21T20:16:38.424Z,92.10
2022-11-21T20:19:08.509Z,92.20
2022-11-21T20:21:37.429Z,92.20
2022-11-21T20:24:08.454Z,92.30
2022-11-21T20:26:36.599Z,92.30
2022-11-21T20:29:05.311Z,92.20
2022-11-21T20:31:36.940Z,92.40
2022-11-21T20:34:11.472Z,92.20
2022-11-21T20:36:39.663Z,92.20
2022-11-21T20:39:12.996Z,92.30
2022-11-21T20:41:41.477Z,92.20
2022-11-21T20:47:05.786Z,92.20
2022-11-21T20:49:33.868Z,91.90
2022-11-21T20:54:49.867Z,92.00
2022-11-21T20:57:18.434Z,91.80
2022-11-21T20:59:46.884Z,92.20
2022-11-21T21:02:14.735Z,91.90
2022-11-21T21:04:42.637Z,91.80
2022-11-21T21:07:10.308Z,92.00
2022-11-21T21:09:38.289Z,92.10
2022-11-21T21:12:05.838Z,92.30
2022-11-21T21:14:33.508Z,92.20
2022-11-21T21:17:00.967Z,92.50
2022-11-21T21:19:28.885Z,92.60
2022-11-21T21:21:56.633Z,92.80
2022-11-21T21:24:24.384Z,92.40
2022-11-21T21:26:52.128Z,92.70
2022-11-21T21:29:21.002Z,93.20
2022-11-21T21:31:52.744Z,93.40
2022-11-21T21:34:22.143Z,93.00
2022-11-21T21:36:50.814Z,93.20
2022-11-21T21:39:20.428Z,93.40
2022-11-21T21:41:48.225Z,93.10
2022-11-21T21:44:16.308Z,93.30
2022-11-21T21:46:44.542Z,93.50
2022-11-21T21:49:12.280Z,93.70
2022-11-21T21:51:40.042Z,93.60
2022-11-21T21:54:14.126Z,93.80
2022-11-21T21:56:41.509Z,93.90
2022-11-21T21:59:09.035Z,93.70
2022-11-21T22:01:36.919Z,93.80
2022-11-21T22:04:05.849Z,93.80
2022-11-21T22:06:34.488Z,94.00
2022-11-21T22:09:02.357Z,93.90
2022-11-21T22:11:32.336Z,93.90
2022-11-21T22:14:02.494Z,94.10
2022-11-21T22:16:30.448Z,94.10
2022-11-21T22:18:58.376Z,94.10
2022-11-21T22:21:34.323Z,94.70
2022-11-21T22:24:27.599Z,94.80
2022-11-21T22:26:55.820Z,94.40
2022-11-21T22:29:24.041Z,95.10
2022-11-21T22:31:51.568Z,95.10
2022-11-21T22:34:19.032Z,94.90
2022-11-21T22:36:46.845Z,94.70
2022-11-21T22:39:15.413Z,94.80
2022-11-21T22:41:42.718Z,95.00
2022-11-21T22:44:10.327Z,95.00
2022-11-21T22:46:37.824Z,95.30
2022-11-21T22:49:05.213Z,95.10
2022-11-21T22:51:32.718Z,95.00
2022-11-21T22:54:00.077Z,94.70
2022-11-21T22:56:27.703Z,95.10
2022-11-21T22:58:55.968Z,95.10
2022-11-21T23:01:25.245Z,95.00
2022-11-21T23:03:53.170Z,95.30
2022-11-21T23:06:24.139Z,95.40
2022-11-21T23:08:56.125Z,95.40
2022-11-21T23:11:28.765Z,95.50
2022-11-21T23:13:57.166Z,95.60
2022-11-21T23:16:25.632Z,95.70
2022-11-21T23:18:54.143Z,95.80
2022-11-21T23:21:22.180Z,95.90
2022-11-21T23:23:49.568Z,96.00
2022-11-21T23:26:17.171Z,95.80
2022-11-21T23:28:45.515Z,95.80
2022-11-21T23:31:13.077Z,95.70
2022-11-21T23:33:40.828Z,95.80
2022-11-21T23:36:08.199Z,95.80
2022-11-21T23:38:35.601Z,95.60
2022-11-21T23:41:02.956Z,95.60
2022-11-21T23:43:30.492Z,95.80
2022-11-21T23:45:57.909Z,95.70
2022-11-21T23:48:25.324Z,96.00
2022-11-21T23:50:52.841Z,95.90
2022-11-21T23:53:22.817Z,95.80
2022-11-21T23:55:52.680Z,96.00
2022-11-21T23:58:20.042Z,95.90
